createdAt,value
2023-04-22T00:01:15.434Z,80.54
2023-04-22T00:03:44.720Z,80.82
2023-04-22T00:06:12.301Z,80.82
2023-04-22T00:08:39.248Z,81.45
2023-04-22T00:11:06.636Z,81.59
2023-04-22T00:13:33.632Z,81.91
2023-04-22T00:16:01.012Z,81.95
2023-04-22T00:18:28.145Z,81.87
2023-04-22T00:20:55.116Z,81.84
2023-04-22T00:23:22.299Z,82.33
2023-04-22T00:25:49.258Z,82.42
2023-04-22T00:28:16.139Z,82.48
2023-04-22T00:30:43.156Z,82.55
2023-04-22T00:33:10.133Z,82.83
2023-04-22T00:35:37.052Z,83.02
2023-04-22T00:38:04.222Z,83.03
2023-04-22T00:40:31.254Z,83.05
2023-04-22T00:42:59.820Z,83.40
2023-04-22T00:45:27.097Z,83.66
2023-04-22T00:47:54.954Z,83.91
2023-04-22T00:50:21.939Z,84.63
2023-04-22T00:52:50.723Z,85.08
2023-04-22T00:55:17.899Z,85.10
2023-04-22T00:57:44.927Z,85.16
2023-04-22T01:00:12.377Z,85.65
2023-04-22T01:02:58.553Z,85.86
2023-04-22T01:05:26.021Z,86.90
2023-04-22T01:07:52.992Z,86.66
2023-04-22T01:10:20.542Z,86.61
2023-04-22T01:12:47.643Z,86.74
2023-04-22T01:15:14.733Z,86.68
2023-04-22T01:17:41.919Z,86.49
2023-04-22T01:20:12.192Z,86.40
2023-04-22T01:22:45.705Z,86.42
2023-04-22T01:25:13.081Z,86.38
2023-04-22T01:27:41.159Z,86.42
2023-04-22T01:30:09.241Z,86.79
2023-04-22T01:32:36.591Z,86.87
2023-04-22T01:35:03.996Z,86.95
2023-04-22T01:37:31.181Z,87.05
2023-04-22T01:39:59.315Z,86.74
2023-04-22T01:42:26.599Z,86.88
2023-04-22T01:44:54.434Z,86.80
2023-04-22T01:47:21.552Z,86.87
2023-04-22T01:49:48.724Z,87.01
2023-04-22T01:52:17.547Z,86.57
2023-04-22T01:54:45.063Z,86.33
2023-04-22T01:57:14.270Z,85.86
2023-04-22T01:59:42.099Z,85.95
2023-04-22T02:02:09.531Z,85.93
2023-04-22T02:04:36.749Z,85.48
2023-04-22T02:07:03.896Z,85.07
2023-04-22T02:09:33.922Z,84.78
2023-04-22T02:12:01.906Z,84.80
2023-04-22T02:14:29.047Z,84.90
2023-04-22T02:16:56.341Z,84.58
2023-04-22T02:19:23.281Z,84.28
2023-04-22T02:21:50.771Z,84.33
2023-04-22T02:24:18.214Z,84.00
2023-04-22T02:26:46.108Z,83.62
2023-04-22T02:29:13.912Z,83.66
2023-04-22T02:31:40.898Z,83.76
2023-04-22T02:34:08.040Z,83.14
2023-04-22T02:36:35.069Z,83.05
2023-04-22T02:39:06.220Z,83.36
2023-04-22T02:41:35.505Z,83.09
2023-04-22T02:44:02.936Z,83.18
2023-04-22T02:46:30.086Z,83.51
2023-04-22T02:48:57.036Z,83.44
2023-04-22T02:51:24.526Z,84.25
2023-04-22T02:53:51.553Z,84.49
2023-04-22T02:56:18.942Z,84.62
2023-04-22T02:58:45.893Z,84.04
2023-04-22T03:01:13.064Z,83.70
2023-04-22T03:03:40.433Z,83.29
2023-04-22T03:06:10.606Z,83.13
2023-04-22T03:08:37.736Z,83.35
2023-04-22T03:11:05.611Z,83.50
2023-04-22T03:13:32.495Z,83.65
2023-04-22T03:15:59.615Z,83.70
2023-04-22T03:18:26.880Z,83.94
2023-04-22T03:20:54.494Z,84.16
2023-04-22T03:23:21.556Z,84.10
2023-04-22T03:25:48.789Z,84.38
2023-04-22T03:28:15.806Z,84.66
2023-04-22T03:30:42.902Z,84.92
2023-04-22T03:33:09.920Z,85.02
2023-04-22T03:35:42.277Z,84.86
2023-04-22T03:38:11.642Z,84.83
2023-04-22T03:40:38.585Z,85.24
2023-04-22T03:43:16.047Z,85.38
2023-04-22T03:45:51.682Z,85.38
2023-04-22T03:48:23.416Z,85.47
2023-04-22T03:50:52.830Z,85.85
2023-04-22T03:53:20.044Z,85.65
2023-04-22T03:55:47.301Z,86.01
2023-04-22T03:58:15.890Z,86.02
2023-04-22T04:00:43.290Z,85.91
2023-04-22T04:03:15.979Z,85.77
2023-04-22T04:05:46.142Z,85.82
2023-04-22T04:08:13.122Z,86.28
2023-04-22T04:10:41.306Z,86.24
2023-04-22T04:13:08.458Z,86.83
2023-04-22T04:15:46.066Z,86.25
2023-04-22T04:18:16.191Z,85.80
2023-04-22T04:20:43.481Z,85.40
2023-04-22T04:23:10.425Z,85.15
2023-04-22T04:25:38.890Z,85.25
2023-04-22T04:28:11.403Z,85.74
2023-04-22T04:30:41.740Z,85.65
2023-04-22T04:33:10.276Z,85.69
2023-04-22T04:35:39.397Z,85.39
2023-04-22T04:38:08.334Z,84.85
2023-04-22T04:40:37.256Z,84.25
2023-04-22T04:43:16.021Z,83.49
2023-04-22T04:45:55.070Z,83.27
2023-04-22T04:48:28.718Z,83.28
2023-04-22T04:51:04.409Z,82.87
2023-04-22T04:53:34.597Z,82.51
2023-04-22T04:56:02.493Z,81.88
2023-04-22T04:58:30.749Z,81.47
2023-04-22T05:01:10.284Z,80.88
2023-04-22T05:03:37.644Z,80.57
2023-04-22T05:06:06.002Z,79.92
2023-04-22T05:08:34.844Z,79.39
2023-04-22T05:11:13.983Z,78.93
2023-04-22T05:13:45.988Z,78.77
2023-04-22T05:16:19.461Z,78.31
2023-04-22T05:18:46.694Z,77.50
2023-04-22T05:21:16.843Z,76.57
2023-04-22T05:23:45.504Z,76.06
2023-04-22T05:26:13.536Z,75.25
2023-04-22T05:28:42.725Z,74.40
2023-04-22T05:31:24.898Z,74.82
2023-04-22T05:33:55.083Z,74.42
2023-04-22T05:36:24.066Z,74.65
2023-04-22T05:38:50.981Z,74.48
2023-04-22T05:41:17.955Z,74.20
2023-04-22T05:43:46.709Z,73.69
2023-04-22T05:46:17.524Z,73.35
2023-04-22T05:48:46.849Z,72.60
2023-04-22T05:51:39.364Z,72.78
2023-04-22T05:54:07.258Z,71.79
2023-04-22T05:56:34.380Z,71.79
2023-04-22T05:59:01.509Z,71.63
2023-04-22T06:01:28.659Z,71.31
2023-04-22T06:04:00.433Z,71.29
2023-04-22T06:06:27.810Z,71.47
2023-04-22T06:08:54.753Z,70.71
2023-04-22T06:11:22.125Z,69.77
2023-04-22T06:13:49.092Z,69.98
2023-04-22T06:16:16.941Z,70.05
2023-04-22T06:18:44.018Z,68.93
2023-04-22T06:21:12.443Z,68.34
2023-04-22T06:23:40.342Z,68.47
2023-04-22T06:26:07.361Z,68.57
2023-04-22T06:28:35.980Z,68.08
2023-04-22T06:31:08.061Z,67.69
2023-04-22T06:33:35.883Z,67.13
2023-04-22T06:36:04.928Z,65.85
2023-04-22T06:38:32.749Z,65.52
2023-04-22T06:41:23.023Z,65.12
2023-04-22T06:43:52.408Z,64.78
2023-04-22T06:46:39.147Z,65.19
2023-04-22T06:49:08.799Z,65.02
2023-04-22T06:51:56.308Z,64.28
2023-04-22T06:54:24.051Z,64.42
2023-04-22T06:56:52.590Z,64.45
2023-04-22T06:59:19.564Z,64.60
2023-04-22T07:01:47.396Z,64.29
2023-04-22T07:04:14.713Z,64.33
2023-04-22T07:06:43.310Z,64.02
2023-04-22T07:09:10.688Z,63.35
2023-04-22T07:11:38.821Z,63.06
2023-04-22T07:14:10.987Z,62.92
2023-04-22T07:16:39.046Z,62.51
2023-04-22T07:19:06.218Z,61.30
2023-04-22T07:21:33.871Z,61.64
2023-04-22T07:24:00.934Z,60.79
2023-04-22T07:26:27.924Z,60.72
2023-04-22T07:28:54.837Z,60.59
2023-04-22T07:31:21.921Z,61.61
2023-04-22T07:33:48.984Z,60.31
2023-04-22T07:36:16.026Z,60.25
2023-04-22T07:38:43.004Z,60.22
2023-04-22T07:41:10.101Z,60.21
2023-04-22T07:43:40.175Z,58.88
2023-04-22T07:46:07.477Z,58.05
2023-04-22T07:48:34.646Z,57.16
2023-04-22T07:51:01.890Z,56.57
2023-04-22T07:53:29.238Z,56.22
2023-04-22T07:55:56.657Z,55.82
2023-04-22T07:58:25.125Z,55.13
2023-04-22T08:00:52.524Z,54.68
2023-04-22T08:03:20.197Z,54.12
2023-04-22T08:05:47.753Z,54.04
2023-04-22T08:08:15.622Z,53.40
2023-04-22T08:10:46.087Z,53.54
2023-04-22T08:13:13.125Z,53.35
2023-04-22T08:15:40.315Z,52.27
2023-04-22T08:18:10.864Z,54.83
2023-04-22T08:20:38.649Z,54.87
2023-04-22T08:23:07.177Z,55.04
2023-04-22T08:25:35.257Z,53.39
2023-04-22T08:28:02.260Z,52.47
2023-04-22T08:30:29.482Z,51.50
2023-04-22T08:32:56.471Z,51.79
2023-04-22T08:35:24.254Z,50.48
2023-04-22T08:37:51.308Z,50.68
2023-04-22T08:40:18.408Z,50.14
2023-04-22T08:42:47.129Z,49.91
2023-04-22T08:45:16.064Z,49.62
2023-04-22T08:47:43.521Z,49.86
2023-04-22T08:50:14.014Z,48.31
2023-04-22T08:52:42.745Z,48.75
2023-04-22T08:55:09.748Z,47.62
2023-04-22T08:57:39.043Z,47.30
2023-04-22T09:00:08.769Z,47.92
2023-04-22T09:02:37.649Z,47.53
2023-04-22T09:05:07.163Z,46.18
2023-04-22T09:07:35.545Z,46.08
2023-04-22T09:10:02.925Z,46.51
2023-04-22T09:12:31.318Z,46.67
2023-04-22T09:14:58.482Z,46.41
2023-04-22T09:17:33.769Z,44.92
2023-04-22T09:20:02.445Z,43.98
2023-04-22T09:22:47.229Z,42.51
2023-04-22T09:25:22.591Z,43.45
2023-04-22T09:27:55.075Z,41.13
2023-04-22T09:30:29.749Z,41.09
2023-04-22T09:32:59.531Z,39.95
2023-04-22T09:35:32.181Z,40.65
2023-04-22T09:38:02.279Z,39.91
2023-04-22T09:40:31.100Z,39.18
2023-04-22T09:43:03.388Z,38.39
2023-04-22T09:45:36.650Z,36.80
2023-04-22T09:48:20.167Z,38.79
2023-04-22T09:50:50.150Z,36.10
2023-04-22T09:53:21.890Z,34.74
2023-04-22T09:55:54.677Z,35.15
2023-04-22T09:58:27.866Z,38.43
2023-04-22T10:00:58.045Z,40.51
2023-04-22T10:03:25.261Z,41.18
2023-04-22T10:05:52.611Z,40.26
2023-04-22T10:08:19.693Z,41.00
2023-04-22T10:10:46.978Z,42.78
2023-04-22T10:13:14.280Z,41.52
2023-04-22T10:15:56.775Z,40.16
2023-04-22T10:18:26.917Z,40.77
2023-04-22T10:20:55.990Z,42.60
2023-04-22T10:23:24.692Z,43.30
2023-04-22T10:25:56.167Z,42.39
2023-04-22T10:28:24.641Z,40.32
2023-04-22T10:30:52.053Z,40.13
2023-04-22T10:33:23.870Z,40.39
2023-04-22T10:36:20.161Z,40.30
2023-04-22T10:38:50.208Z,38.19
2023-04-22T10:41:22.370Z,39.28
2023-04-22T10:43:58.633Z,37.60
2023-04-22T10:46:37.189Z,37.97
2023-04-22T10:49:15.833Z,37.45
2023-04-22T10:51:44.283Z,37.00
2023-04-22T10:54:37.651Z,37.81
2023-04-22T10:57:10.300Z,37.48
2023-04-22T10:59:58.573Z,36.56
2023-04-22T11:02:26.850Z,36.34
2023-04-22T11:05:25.323Z,36.24
2023-04-22T11:07:54.184Z,36.91
2023-04-22T11:10:51.298Z,36.70
2023-04-22T11:13:23.646Z,36.99
2023-04-22T11:15:54.262Z,37.98
2023-04-22T11:18:24.142Z,38.08
2023-04-22T11:20:52.491Z,38.21
2023-04-22T11:23:25.931Z,40.74
2023-04-22T11:26:01.474Z,43.04
2023-04-22T11:49:21.224Z,44.40
2023-04-22T11:52:40.020Z,45.00
2023-04-22T11:55:11.434Z,44.59
2023-04-22T11:57:38.650Z,45.19
2023-04-22T12:00:33.323Z,45.05
2023-04-22T12:03:16.995Z,45.45
2023-04-22T12:05:52.213Z,45.10
2023-04-22T12:08:31.645Z,45.27
2023-04-22T12:11:02.215Z,45.84
2023-04-22T12:13:31.536Z,46.67
2023-04-22T12:16:09.893Z,45.99
2023-04-22T12:18:38.930Z,46.56
2023-04-22T12:21:10.944Z,45.70
2023-04-22T12:23:46.994Z,46.09
2023-04-22T12:26:15.520Z,44.69
2023-04-22T12:28:44.124Z,45.00
2023-04-22T12:31:11.780Z,45.83
2023-04-22T12:33:39.396Z,46.18
2023-04-22T12:36:07.610Z,45.34
2023-04-22T12:38:38.636Z,45.03
2023-04-22T12:41:11.451Z,45.96
2023-04-22T12:43:39.533Z,47.19
2023-04-22T12:46:08.791Z,47.25
2023-04-22T12:48:39.698Z,47.55
2023-04-22T12:51:07.252Z,47.28
2023-04-22T12:53:34.819Z,46.00
2023-04-22T12:56:02.259Z,45.12
2023-04-22T12:58:29.513Z,45.47
2023-04-22T13:00:56.794Z,45.34
2023-04-22T13:03:24.372Z,45.07
2023-04-22T13:05:53.175Z,44.55
2023-04-22T13:08:20.533Z,45.65
2023-04-22T13:10:48.762Z,45.82
2023-04-22T13:13:18.451Z,44.80
2023-04-22T13:16:03.607Z,43.64
2023-04-22T13:18:31.245Z,43.66
2023-04-22T13:20:58.642Z,43.51
2023-04-22T13:23:26.119Z,43.42
2023-04-22T13:25:53.811Z,42.92
2023-04-22T13:28:20.898Z,43.11
2023-04-22T13:30:47.916Z,42.82
2023-04-22T13:33:15.058Z,43.58
2023-04-22T13:35:42.807Z,43.22
2023-04-22T13:38:09.800Z,41.86
2023-04-22T13:40:36.911Z,42.45
2023-04-22T13:43:04.426Z,43.10
2023-04-22T13:45:31.648Z,42.22
2023-04-22T13:47:58.797Z,41.11
2023-04-22T13:50:25.888Z,41.58
2023-04-22T13:52:53.548Z,42.24
2023-04-22T13:55:20.785Z,40.71
2023-04-22T13:57:48.105Z,40.26
2023-04-22T14:00:15.310Z,39.44
2023-04-22T14:02:42.350Z,39.35
2023-04-22T14:05:10.634Z,39.35
2023-04-22T14:07:37.827Z,38.63
2023-04-22T14:10:07.979Z,39.69
2023-04-22T14:12:35.215Z,39.80
2023-04-22T14:15:02.254Z,41.20
2023-04-22T14:17:32.363Z,39.34
2023-04-22T14:19:59.705Z,39.83
2023-04-22T14:22:26.810Z,39.73
2023-04-22T14:24:54.315Z,40.23
2023-04-22T14:27:21.237Z,38.88
2023-04-22T14:29:52.438Z,38.75
2023-04-22T14:32:20.714Z,38.13
2023-04-22T14:34:48.461Z,37.24
2023-04-22T14:37:15.629Z,36.53
2023-04-22T14:39:42.848Z,37.11
2023-04-22T14:42:10.126Z,37.54
2023-04-22T14:44:37.125Z,37.38
2023-04-22T14:47:04.395Z,36.27
2023-04-22T14:49:33.265Z,36.38
2023-04-22T14:52:01.602Z,36.19
2023-04-22T14:54:28.966Z,35.89
2023-04-22T14:56:56.317Z,36.12
2023-04-22T14:59:23.460Z,35.27
2023-04-22T15:01:51.238Z,34.86
2023-04-22T15:04:19.193Z,35.73
2023-04-22T15:06:46.396Z,34.28
2023-04-22T15:09:13.609Z,35.25
2023-04-22T15:11:43.725Z,36.63
2023-04-22T15:14:10.799Z,37.38
2023-04-22T15:16:37.904Z,38.79
2023-04-22T15:19:05.582Z,41.41
2023-04-22T15:21:33.354Z,43.05
2023-04-22T15:24:00.303Z,43.17
2023-04-22T15:26:27.954Z,43.65
2023-04-22T15:28:55.593Z,43.68
2023-04-22T15:31:23.012Z,43.77
2023-04-22T15:33:51.194Z,43.19
2023-04-22T15:36:21.036Z,42.02
2023-04-22T15:38:48.033Z,39.54
2023-04-22T15:41:15.952Z,38.99
2023-04-22T15:43:43.369Z,37.60
2023-04-22T15:46:10.662Z,35.04
2023-04-22T15:48:37.960Z,32.32
2023-04-22T15:51:04.934Z,31.11
2023-04-22T15:53:32.006Z,29.36
2023-04-22T15:55:58.947Z,29.61
2023-04-22T15:58:25.975Z,29.15
2023-04-22T16:00:53.088Z,30.92
2023-04-22T16:03:21.044Z,32.89
2023-04-22T16:05:48.082Z,35.00
2023-04-22T16:08:16.144Z,36.96
2023-04-22T16:10:43.216Z,38.39
2023-04-22T16:13:11.240Z,39.44
2023-04-22T16:15:38.276Z,38.21
2023-04-22T16:18:05.852Z,37.10
2023-04-22T16:20:32.890Z,36.90
2023-04-22T16:23:00.341Z,35.68
2023-04-22T16:25:28.130Z,35.37
2023-04-22T16:27:55.654Z,34.59
2023-04-22T16:30:22.997Z,34.04
2023-04-22T16:32:50.637Z,32.99
2023-04-22T16:35:17.995Z,32.27
2023-04-22T16:37:44.954Z,32.21
2023-04-22T16:40:12.361Z,32.13
2023-04-22T16:42:39.522Z,32.78
2023-04-22T16:45:07.938Z,34.06
2023-04-22T16:47:37.696Z,37.70
2023-04-22T16:50:05.388Z,41.54
2023-04-22T16:52:32.925Z,43.94
2023-04-22T16:55:00.487Z,45.45
2023-04-22T16:57:27.647Z,47.94
2023-04-22T16:59:54.884Z,49.37
2023-04-22T17:02:22.555Z,51.33
2023-04-22T17:04:51.096Z,52.64
2023-04-22T17:07:18.319Z,53.43
2023-04-22T17:09:45.238Z,55.19
2023-04-22T17:12:12.466Z,55.80
2023-04-22T17:14:39.366Z,56.59
2023-04-22T17:17:06.503Z,57.21
2023-04-22T17:19:33.753Z,57.71
2023-04-22T17:22:01.939Z,58.01
2023-04-22T17:24:47.753Z,58.74
2023-04-22T17:27:15.840Z,58.94
2023-04-22T17:29:43.217Z,59.46
2023-04-22T17:32:10.389Z,60.10
2023-04-22T17:34:37.388Z,59.55
2023-04-22T17:37:04.313Z,60.00
2023-04-22T17:39:32.517Z,60.36
2023-04-22T17:41:59.522Z,60.31
2023-04-22T17:44:26.546Z,60.55
2023-04-22T17:46:53.520Z,61.29
2023-04-22T17:49:20.662Z,60.84
2023-04-22T17:51:47.668Z,60.77
2023-04-22T17:54:15.089Z,60.83
2023-04-22T17:56:42.196Z,61.46
2023-04-22T17:59:11.401Z,61.11
2023-04-22T18:01:41.134Z,61.58
2023-04-22T18:04:08.374Z,62.35
2023-04-22T18:06:36.324Z,62.54
2023-04-22T18:09:07.025Z,62.65
2023-04-22T18:11:34.394Z,63.08
2023-04-22T18:14:01.338Z,62.71
2023-04-22T18:16:31.675Z,63.28
2023-04-22T18:19:02.230Z,64.22
2023-04-22T18:21:49.588Z,64.10
2023-04-22T18:24:20.364Z,64.11
2023-04-22T18:26:48.839Z,64.21
2023-04-22T18:29:16.538Z,64.34
2023-04-22T18:31:43.641Z,64.57
2023-04-22T18:34:13.345Z,64.60
2023-04-22T18:36:49.401Z,65.17
2023-04-22T18:39:21.506Z,65.17
2023-04-22T18:41:49.385Z,65.70
2023-04-22T18:44:16.408Z,65.57
2023-04-22T18:46:43.533Z,65.16
2023-04-22T18:49:10.512Z,64.72
2023-04-22T18:51:39.269Z,64.62
2023-04-22T18:54:08.004Z,64.64
2023-04-22T18:56:34.899Z,65.12
2023-04-22T18:59:01.993Z,65.90
2023-04-22T19:01:29.076Z,65.72
2023-04-22T19:03:56.301Z,66.08
2023-04-22T19:06:23.565Z,66.44
2023-04-22T19:08:52.911Z,68.09
2023-04-22T19:11:19.927Z,69.73
2023-04-22T19:13:46.907Z,71.02
2023-04-22T19:16:14.063Z,71.74
2023-04-22T19:18:42.518Z,72.00
2023-04-22T19:21:09.636Z,72.70
2023-04-22T19:23:37.042Z,72.94
2023-04-22T19:26:04.410Z,73.25
2023-04-22T19:28:31.420Z,73.35
2023-04-22T19:31:00.277Z,73.38
2023-04-22T19:33:27.559Z,73.79
2023-04-22T19:35:54.397Z,73.90
2023-04-22T19:38:23.220Z,73.62
2023-04-22T19:40:50.922Z,73.34
2023-04-22T19:43:19.334Z,73.08
2023-04-22T19:45:46.599Z,72.75
2023-04-22T19:48:14.308Z,72.18
2023-04-22T19:50:43.640Z,71.81
2023-04-22T19:53:10.868Z,72.18
2023-04-22T19:55:38.702Z,71.88
2023-04-22T19:58:05.969Z,72.29
2023-04-22T20:00:33.204Z,72.60
2023-04-22T20:03:00.471Z,72.70
2023-04-22T20:05:28.003Z,73.02
2023-04-22T20:07:59.770Z,73.13
2023-04-22T20:10:27.436Z,72.98
2023-04-22T20:12:54.912Z,73.01
2023-04-22T20:15:22.570Z,73.33
2023-04-22T20:17:50.297Z,73.31
2023-04-22T20:20:17.859Z,73.74
2023-04-22T20:22:45.964Z,73.62
2023-04-22T20:25:19.726Z,74.06
2023-04-22T20:27:47.075Z,73.94
2023-04-22T20:30:14.713Z,74.66
2023-04-22T20:32:42.442Z,74.50
2023-04-22T20:35:15.012Z,74.61
2023-04-22T20:37:42.966Z,74.80
2023-04-22T20:40:11.741Z,74.69
2023-04-22T20:42:39.197Z,74.77
2023-04-22T20:45:07.120Z,74.85
2023-04-22T20:47:35.405Z,75.39
2023-04-22T20:50:04.437Z,75.63
2023-04-22T20:52:32.088Z,75.67
2023-04-22T20:54:59.686Z,76.28
2023-04-22T20:57:26.683Z,76.24
2023-04-22T20:59:54.958Z,76.45
2023-04-22T21:02:22.292Z,76.63
2023-04-22T21:04:50.442Z,77.02
2023-04-22T21:07:21.368Z,77.00
2023-04-22T21:09:48.702Z,77.47
2023-04-22T21:12:18.301Z,77.43
2023-04-22T21:14:46.435Z,78.24
2023-04-22T21:17:25.181Z,78.21
2023-04-22T21:19:54.928Z,78.32
2023-04-22T21:22:24.737Z,78.63
2023-04-22T21:24:52.988Z,78.76
2023-04-22T21:27:22.164Z,79.00
2023-04-22T21:29:49.976Z,79.13
2023-04-22T21:32:20.156Z,79.00
2023-04-22T21:34:47.720Z,78.55
2023-04-22T21:37:15.947Z,78.90
2023-04-22T21:39:43.331Z,78.72
2023-04-22T21:42:10.731Z,78.60
2023-04-22T21:44:38.314Z,78.87
2023-04-22T21:47:06.518Z,78.78
2023-04-22T21:49:33.732Z,78.63
2023-04-22T21:52:01.140Z,78.48
2023-04-22T21:54:28.605Z,78.64
2023-04-22T21:56:56.944Z,78.43
2023-04-22T21:59:24.856Z,78.48
2023-04-22T22:01:52.352Z,78.78
2023-04-22T22:04:19.641Z,78.95
2023-04-22T22:06:46.943Z,78.88
2023-04-22T22:09:14.379Z,78.92
2023-04-22T22:11:41.611Z,78.92
2023-04-22T22:14:08.694Z,78.92
2023-04-22T22:16:35.958Z,79.13
2023-04-22T22:19:04.532Z,78.97
2023-04-22T22:21:33.373Z,79.06
2023-04-22T22:24:00.534Z,78.72
2023-04-22T22:26:28.032Z,78.91
2023-04-22T22:28:55.426Z,78.90
2023-04-22T22:31:22.470Z,78.91
2023-04-22T22:33:49.650Z,79.03
2023-04-22T22:36:16.556Z,79.21
2023-04-22T22:38:44.886Z,79.47
2023-04-22T22:41:11.929Z,79.31
2023-04-22T22:43:40.218Z,79.57
2023-04-22T22:46:07.527Z,79.70
2023-04-22T22:48:34.763Z,79.77
2023-04-22T22:51:01.855Z,79.54
2023-04-22T22:53:28.811Z,79.66
2023-04-22T22:55:55.853Z,79.77
2023-04-22T22:58:22.742Z,79.72
2023-04-22T23:00:49.882Z,80.06
2023-04-22T23:03:19.275Z,79.91
2023-04-22T23:05:46.973Z,79.98
2023-04-22T23:08:14.765Z,80.18
2023-04-22T23:10:42.042Z,80.21
2023-04-22T23:13:08.894Z,80.36
2023-04-22T23:15:36.547Z,80.20
2023-04-22T23:18:03.899Z,80.38
2023-04-22T23:20:31.717Z,80.41
2023-04-22T23:23:00.602Z,80.64
2023-04-22T23:25:28.417Z,80.58
2023-04-22T23:27:56.106Z,80.93
2023-04-22T23:30:23.577Z,81.11
2023-04-22T23:32:52.352Z,81.21
2023-04-22T23:35:20.575Z,81.26
2023-04-22T23:37:50.813Z,81.42
2023-04-22T23:40:18.122Z,81.36
2023-04-22T23:42:45.047Z,81.62
2023-04-22T23:45:12.276Z,81.76
2023-04-22T23:47:39.801Z,81.80
2023-04-22T23:50:07.617Z,82.18
2023-04-22T23:52:40.663Z,82.36
2023-04-22T23:55:10.284Z,82.39
2023-04-22T23:57:38.187Z,82.39
